Latest Weather Observations for Macquarie Island

IDT60801

Issued at 7:32 pm EST Wednesday 23 August 2017 (issued every 30 minutes, with the page automatically refreshed every 10 minutes)

About weather observations | Map of weather stations | Latest weather observations for TAS | Other Formats
Station Details ID: 300004 Name: MACQUARIE ISLAND Lat: -54.50 Lon: 158.94 Height: 6.0 m
Data from the previous 72 hours. | See also: Recent months at Macquarie Island
Date/Time
EST
Temp
°C
App
Temp
°C
Dew
Point
°C
Rel
Hum
%
Delta-T
°C
Wind Press
QNH
hPa
Press
MSL
hPa
Rain since
9am
mm
Dir  Spd
km/h
Gust
km/h
Spd
kts
Gust
kts
23/07:30pm 1.3 -4.6 -5.2 62 2.1 W 17 24 9 13 1010.5 - 0.0
23/07:00pm 1.5 -5.8 -6.5 55 2.6 W 24 30 13 16 1010.2 - 0.0
23/06:30pm 1.5 -5.8 -6.3 56 2.5 W 24 33 13 18 1009.7 - 0.0
23/06:00pm 1.1 -6.2 -6.0 59 2.3 W 24 33 13 18 1009.1 1009.4 0.0
23/05:30pm 0.9 -5.6 -2.8 76 1.3 WNW 22 32 12 17 1008.5 - 0.0
23/05:00pm 1.5 -7.1 -2.4 75 1.3 WNW 33 39 18 21 1008.0 - 0.0
23/04:30pm 1.3 -7.2 -3.6 70 1.7 W 32 41 17 22 1007.3 - 0.0
23/04:00pm 0.9 -6.3 -2.0 81 1.1 W 26 33 14 18 1007.0 - 0.0
23/03:30pm 1.0 -9.6 -2.1 80 1.1 W 44 63 24 34 1006.7 - 0.0
23/03:00pm 1.9 -7.8 -2.1 75 1.4 W 39 50 21 27 1005.6 1005.9 0.0
23/02:50pm 2.5 -8.8 -1.3 76 1.4 W 48 56 26 30 1005.5 - 0.0
23/02:35pm 2.7 -7.8 -2.4 69 1.8 WNW 43 63 23 34 1004.7 - 0.0
23/02:30pm 2.7 -7.9 -3.6 63 2.1 W 43 52 23 28 1004.7 - 0.0
23/02:19pm 3.5 -5.6 -3.5 60 2.4 W 35 56 19 30 1004.5 - 0.0
23/02:00pm 3.0 -5.9 -2.3 68 1.9 W 35 43 19 23 1004.3 - 0.0
23/01:30pm 3.8 -5.9 -2.6 63 2.2 W 39 50 21 27 1003.9 - 0.0
23/01:00pm 3.9 -6.0 -4.3 55 2.7 WNW 39 46 21 25 1003.3 - 0.0
23/12:30pm 4.0 -5.8 -3.3 59 2.5 WNW 39 52 21 28 1002.9 - 0.0
23/12:00pm 3.3 -5.7 -2.6 65 2.1 W 35 46 19 25 1002.6 1002.9 0.0
23/11:30am 3.3 -5.7 -2.4 66 2.0 W 35 44 19 24 1002.5 - 0.0
23/11:00am 3.0 -6.4 -2.5 67 1.9 W 37 48 20 26 1002.1 - 0.0
23/10:38am 3.4 -7.7 -2.5 65 2.1 W 46 56 25 30 1002.1 - 0.0
23/10:30am 4.1 -7.0 -3.0 60 2.5 WNW 46 57 25 31 1001.4 - 0.0
23/10:00am 3.9 -6.2 -2.3 64 2.2 WNW 41 52 22 28 1001.1 - 0.0
23/09:30am 3.2 -7.4 -3.1 63 2.2 WNW 43 54 23 29 1000.8 - 0.0
23/09:00am 3.3 -7.4 -2.6 65 2.1 WNW 44 54 24 29 1000.2 1000.5 1.4
23/08:30am 2.9 -6.8 -2.4 68 1.8 WNW 39 48 21 26 999.8 - 1.4
23/08:00am 2.9 -7.1 -1.5 73 1.6 W 41 52 22 28 999.5 - 1.4
23/07:30am 2.7 -7.9 -3.2 65 2.0 WNW 43 54 23 29 999.0 - 1.4
23/07:00am 2.3 -7.5 -3.2 67 1.9 WNW 39 50 21 27 998.6 - 1.4
23/06:31am 3.0 -7.4 -1.7 71 1.7 WNW 43 61 23 33 998.2 - 1.4
23/06:30am 2.9 -7.5 -2.0 70 1.7 WNW 43 56 23 30 998.1 - 1.4
23/06:00am 3.1 -7.9 -2.0 69 1.8 WNW 46 59 25 32 997.7 998.0 1.4
23/05:30am 2.9 -8.5 -2.4 68 1.8 WNW 48 63 26 34 997.4 - 1.4
23/05:00am 3.0 -9.5 -1.5 72 1.6 WNW 54 69 29 37 997.0 - 1.4
23/04:48am 2.9 -8.5 -2.0 70 1.7 WNW 48 69 26 37 996.7 - 1.4
23/04:30am 3.2 -9.7 -1.9 69 1.8 WNW 56 69 30 37 996.5 - 1.4
23/04:00am 3.3 -9.7 -1.3 72 1.7 WNW 57 72 31 39 995.9 - 1.4
23/03:30am 3.3 -9.7 -1.3 72 1.7 WNW 57 76 31 41 995.6 - 1.4
23/03:28am 3.3 -9.7 -1.3 72 1.7 WNW 57 76 31 41 995.7 - 1.4
23/03:00am 3.2 -9.8 -1.2 73 1.6 NW 57 72 31 39 995.3 995.6 1.4
23/02:30am 3.4 -8.1 -0.4 76 1.4 NW 50 65 27 35 995.0 - 1.4
23/02:27am 3.2 -7.5 -0.1 79 1.2 NW 46 65 25 35 994.9 - 1.4
23/02:00am 3.0 -8.1 0.1 81 1.1 NNW 48 61 26 33 994.7 - 1.4
23/01:30am 3.3 -8.4 1.0 85 0.9 NNW 52 72 28 39 994.7 - 1.4
23/01:18am 4.2 -8.6 -0.2 73 1.6 NW 57 76 31 41 994.5 - 1.4
23/01:00am 4.1 -7.0 -0.3 73 1.6 NW 48 63 26 34 994.4 - 1.4
23/12:57am 4.2 -6.1 0.0 74 1.6 NW 44 63 24 34 994.4 - 1.4
23/12:30am 4.1 -6.3 -0.1 74 1.6 NW 44 56 24 30 994.7 - 1.4
23/12:00am 3.7 -7.1 -0.7 73 1.6 NW 46 57 25 31 994.6 994.9 1.4
 
Date/Time
EST
Temp
°C
App
Temp
°C
Dew
Point
°C
Rel
Hum
%
Delta-T
°C
Wind Press
QNH
hPa
Press
MSL
hPa
Rain since
9am
mm
Dir  Spd
km/h
Gust
km/h
Spd
kts
Gust
kts
22/11:30pm 3.8 -7.7 -0.4 74 1.6 WNW 50 65 27 35 994.4 - 1.4
22/11:00pm 3.7 -9.3 -1.6 68 1.9 WNW 57 69 31 37 994.1 - 1.4
22/10:30pm 3.5 -7.4 -0.9 73 1.6 WNW 46 63 25 34 993.6 - 1.4
22/10:00pm 3.4 -9.5 -1.7 69 1.8 WNW 56 74 30 40 993.1 - 1.4
22/09:58pm 3.4 -9.5 -1.9 68 1.9 WNW 56 74 30 40 992.9 - 1.4
22/09:30pm 3.4 -8.6 -1.3 71 1.7 WNW 52 69 28 37 992.4 - 1.4
22/09:00pm 3.4 -9.8 -0.1 78 1.3 WNW 59 78 32 42 991.6 991.9 1.4
22/08:30pm 3.2 -12.1 -0.3 78 1.3 WNW 70 93 38 50 990.4 - 1.4
22/08:01pm 3.2 -12.4 0.6 83 1.0 WNW 72 91 39 49 989.2 - 1.4
22/08:00pm 3.1 -12.9 0.5 83 1.0 WNW 74 91 40 49 989.1 - 1.4
22/07:30pm 3.7 -12.3 0.4 79 1.2 WNW 74 95 40 51 987.7 - 1.4
22/07:00pm 3.9 -14.6 0.1 76 1.4 WNW 87 113 47 61 986.2 - 1.4
22/06:30pm 4.1 -14.0 0.4 77 1.4 NW 85 106 46 57 984.9 - 1.4
22/06:00pm 4.6 -14.3 0.2 73 1.7 NW 89 109 48 59 983.7 984.0 1.4
22/05:30pm 4.4 -14.3 1.1 79 1.3 NW 89 109 48 59 983.4 - 1.4
22/05:00pm 5.3 -11.7 1.4 76 1.5 NW 80 109 43 59 982.5 - 1.4
22/04:50pm 5.4 -9.4 1.7 77 1.5 NW 69 106 37 57 982.5 - 1.4
22/04:30pm 5.1 -8.1 2.6 84 1.0 NW 61 82 33 44 983.0 - 1.4
22/04:00pm 5.8 -9.5 2.1 77 1.5 NW 72 98 39 53 982.8 - 1.4
22/03:30pm 5.8 -8.6 1.7 75 1.6 NW 67 95 36 51 982.7 - 1.4
22/03:00pm 5.6 -8.6 3.3 85 1.0 NNW 67 87 36 47 982.9 983.3 1.4
22/02:30pm 5.3 -7.7 3.5 88 0.7 NNW 61 80 33 43 983.1 - 1.4
22/02:07pm 5.3 -7.8 2.8 84 1.0 NNW 61 80 33 43 983.3 - 1.0
22/02:00pm 5.2 -7.9 2.7 84 1.0 NNW 61 78 33 42 983.3 - 1.0
22/01:30pm 5.3 -10.6 3.3 87 0.8 NNW 76 98 41 53 983.4 - 1.0
22/01:18pm 6.5 -9.1 5.0 90 0.7 N 76 96 41 52 982.6 - 0.4
22/01:00pm 6.5 -9.1 5.0 90 0.7 N 76 89 41 48 983.3 - 0.4
22/12:47pm 6.5 -8.3 5.0 90 0.7 N 72 91 39 49 983.8 - 0.4
22/12:30pm 6.5 -8.7 5.1 91 0.6 N 74 85 40 46 984.5 - 0.2
22/12:00pm 6.5 -8.3 5.0 90 0.7 N 72 87 39 47 985.6 985.9 0.0
22/11:39am 6.6 -7.6 5.1 90 0.7 N 69 87 37 47 986.3 - 0.0
22/11:30am 6.5 -7.7 5.0 90 0.7 N 69 82 37 44 986.7 - 0.0
22/11:00am 6.5 -7.0 4.8 89 0.7 N 65 76 35 41 988.0 - 0.0
22/10:30am 6.5 -6.6 5.0 90 0.7 N 63 76 34 41 989.0 - 0.0
22/10:00am 6.5 -6.6 5.0 90 0.7 N 63 72 34 39 990.0 - 0.0
22/09:30am 6.4 -6.0 4.9 90 0.7 N 59 70 32 38 990.6 - 0.0
22/09:00am 6.2 -6.6 4.7 90 0.7 NNW 61 70 33 38 991.2 991.5 1.2
22/08:30am 6.2 -5.8 4.8 91 0.6 N 57 70 31 38 991.9 - 1.2
22/08:00am 6.1 -5.3 4.9 92 0.5 NNW 54 63 29 34 992.4 - 1.2
22/07:30am 6.1 -5.3 4.9 92 0.5 N 54 63 29 34 992.8 - 1.2
22/07:00am 6.0 -5.0 4.8 92 0.5 N 52 61 28 33 993.2 - 1.2
22/06:30am 5.9 -4.7 4.9 93 0.4 N 50 57 27 31 993.5 - 1.2
22/06:00am 5.8 -4.8 4.9 94 0.4 N 50 57 27 31 994.0 994.3 1.2
22/05:30am 5.6 -4.7 4.7 94 0.4 N 48 56 26 30 994.4 - 1.2
22/05:00am 4.6 -4.2 3.7 94 0.4 N 39 46 21 25 995.3 - 1.0
22/04:30am 4.5 -3.6 3.3 92 0.5 N 35 43 19 23 996.1 - 0.6
22/04:00am 4.8 -3.3 3.0 88 0.7 N 35 46 19 25 997.0 - 0.2
22/03:30am 5.1 -2.5 3.1 87 0.8 N 32 37 17 20 997.7 - 0.2
22/03:00am 5.0 -2.6 2.7 85 0.9 N 32 37 17 20 998.3 998.6 0.2
22/02:30am 4.8 -2.9 2.5 85 0.9 N 32 37 17 20 999.0 - 0.2
22/02:00am 4.7 -3.0 2.4 85 0.9 N 32 35 17 19 999.3 - 0.2
22/01:30am 4.6 -3.1 2.3 85 0.9 N 32 35 17 19 999.9 - 0.2
22/01:00am 4.5 -3.2 2.2 85 0.9 N 32 35 17 19 1000.2 - 0.2
22/12:30am 4.5 -2.9 2.0 84 1.0 NNW 30 32 16 17 1000.3 - 0.2
22/12:00am 4.4 -3.4 1.8 83 1.0 NNW 32 35 17 19 1000.7 1001.0 0.2
 
Date/Time
EST
Temp
°C
App
Temp
°C
Dew
Point
°C
Rel
Hum
%
Delta-T
°C
Wind Press
QNH
hPa
Press
MSL
hPa
Rain since
9am
mm
Dir  Spd
km/h
Gust
km/h
Spd
kts
Gust
kts
21/11:30pm 4.4 -3.4 1.8 83 1.0 NNW 32 35 17 19 1001.0 - 0.2
21/11:00pm 4.1 -3.3 1.6 84 1.0 NNW 30 35 16 19 1001.1 - 0.2
21/10:30pm 4.0 -3.5 1.4 83 1.0 NW 30 33 16 18 1001.2 - 0.2
21/10:00pm 3.8 -4.1 1.2 83 1.0 WNW 32 37 17 20 1001.2 - 0.2
21/09:35pm 3.4 -6.9 0.6 82 1.1 W 44 54 24 29 1001.3 - 0.2
21/09:30pm 4.1 -4.4 1.0 80 1.2 NW 35 57 19 31 1001.2 - 0.2
21/09:29pm 4.3 -3.8 1.2 80 1.2 NW 33 57 18 31 1001.1 - 0.2
21/09:00pm 4.3 -3.8 1.0 79 1.3 WNW 33 39 18 21 1001.2 1001.5 0.2
21/08:30pm 4.2 -4.3 0.7 78 1.3 WNW 35 44 19 24 1001.3 - 0.2
21/08:00pm 4.1 -5.2 0.6 78 1.3 WNW 39 44 21 24 1001.2 - 0.2
21/07:30pm 3.8 -4.7 1.0 82 1.1 WNW 35 43 19 23 1001.0 - 0.2
21/07:06pm 2.9 -5.1 0.3 83 1.0 WNW 32 35 17 19 1000.6 - 0.2
21/07:00pm 2.5 -6.5 -0.1 83 1.0 W 37 46 20 25 1000.6 - 0.2
21/06:53pm 2.4 -8.3 0.0 84 0.9 W 46 65 25 35 1000.8 - 0.2
21/06:45pm 2.7 -9.5 0.1 83 1.0 W 54 65 29 35 1000.6 - 0.2
21/06:43pm 3.4 -5.1 1.0 84 0.9 WNW 35 57 19 31 1000.7 - 0.2
21/06:30pm 4.0 -4.4 1.4 83 1.0 WNW 35 41 19 22 1000.4 - 0.0
21/06:00pm 3.5 -5.4 0.7 82 1.1 WNW 37 48 20 26 1000.2 1000.5 0.0
21/05:35pm 3.8 -6.9 0.1 77 1.4 W 46 59 25 32 1000.2 - 0.0
21/05:30pm 4.4 -7.1 -0.2 72 1.7 WNW 50 61 27 33 999.7 - 0.0
21/05:00pm 4.4 -4.9 0.7 77 1.4 WNW 39 48 21 26 999.7 - 0.0
21/04:30pm 4.2 -6.4 0.5 77 1.4 WNW 46 56 25 30 999.5 - 0.0
21/04:00pm 4.0 -7.8 0.2 76 1.4 WNW 52 61 28 33 999.1 - 0.0
21/03:39pm 4.5 -7.8 -0.1 72 1.7 WNW 54 72 29 39 998.8 - 0.0
21/03:30pm 4.4 -7.2 -0.6 70 1.9 WNW 50 65 27 35 998.8 - 0.0
21/03:00pm 4.6 -6.6 -0.6 69 2.0 WNW 48 63 26 34 998.4 998.7 0.0
21/02:34pm 4.7 -5.4 0.1 72 1.7 WNW 43 61 23 33 998.2 - 0.0
21/02:30pm 4.6 -5.5 0.6 75 1.5 WNW 43 54 23 29 998.3 - 0.0
21/02:00pm 4.7 -7.6 -0.5 69 1.9 WNW 54 65 29 35 997.9 - 0.0
21/01:30pm 4.7 -7.3 -1.3 65 2.2 WNW 52 69 28 37 997.6 - 0.0
21/01:28pm 4.8 -6.8 -1.0 66 2.1 WNW 50 69 27 37 997.7 - 0.0
21/01:00pm 4.8 -6.8 -0.8 67 2.1 WNW 50 67 27 36 997.3 - 0.0
21/12:30pm 5.0 -7.9 -0.8 66 2.2 WNW 57 76 31 41 997.0 - 0.0
21/12:00pm 5.2 -6.8 -0.8 65 2.3 WNW 52 76 28 41 996.6 996.9 0.0
21/11:57am 5.3 -5.8 -0.1 68 2.1 WNW 48 67 26 36 996.7 - 0.0
21/11:30am 4.9 -8.0 -0.9 66 2.2 WNW 57 70 31 38 996.7 - 0.0
21/11:09am 4.9 -7.5 -0.9 66 2.2 WNW 54 72 29 39 996.7 - 0.0
21/11:00am 5.2 -8.1 -0.6 66 2.2 WNW 59 70 32 38 996.6 - 0.0
21/10:30am 4.9 -8.1 -1.5 63 2.3 WNW 57 72 31 39 996.3 - 0.0
21/10:00am 4.6 -9.0 -0.4 70 1.9 WNW 61 72 33 39 996.1 - 0.0
21/09:30am 4.9 -6.9 0.1 71 1.8 WNW 52 65 28 35 995.6 - 0.0
21/09:00am 4.7 -8.1 -1.1 66 2.2 WNW 56 69 30 37 995.5 995.8 1.8
21/08:30am 4.6 -8.3 -0.8 68 2.0 WNW 57 70 31 38 995.1 - 1.8
21/08:10am 4.3 -8.0 -0.5 71 1.8 WNW 54 72 29 39 995.1 - 1.8
21/08:00am 4.2 -8.8 -1.6 66 2.1 WNW 57 70 31 38 994.8 - 1.8
21/07:30am 4.2 -8.5 -0.8 70 1.8 WNW 56 78 30 42 994.5 - 1.8
21/07:20am 4.2 -8.1 -0.6 71 1.8 WNW 54 74 29 40 994.4 - 1.8
21/07:00am 4.1 -8.6 -0.5 72 1.7 WNW 56 69 30 37 994.0 - 1.8
21/06:31am 4.0 -7.5 -0.2 74 1.6 WNW 50 69 27 37 993.6 - 1.8
21/06:30am 3.9 -8.1 -0.7 72 1.7 WNW 52 69 28 37 993.5 - 1.8
21/06:02am 3.8 -7.9 -1.2 70 1.8 WNW 50 69 27 37 993.1 - 1.8
21/06:00am 3.8 -7.8 -0.8 72 1.7 WNW 50 67 27 36 993.1 993.4 1.8
21/05:30am 4.1 -8.1 0.1 75 1.5 WNW 54 65 29 35 992.6 - 1.8
21/05:19am 4.1 -7.4 0.1 75 1.5 W 50 69 27 37 992.5 - 1.8
21/05:00am 4.1 -7.3 0.3 76 1.4 W 50 65 27 35 992.0 - 1.8
21/04:30am 4.1 -8.1 0.4 77 1.4 WNW 54 67 29 36 991.4 - 1.8
21/04:20am 4.4 -6.5 1.6 82 1.1 WNW 48 67 26 36 991.1 - 1.8
21/04:00am 4.8 -5.1 2.7 86 0.9 WNW 44 56 24 30 990.6 - 1.8
21/03:30am 5.3 -5.9 4.0 91 0.5 WNW 52 65 28 35 990.1 - 1.8
21/03:00am 6.0 -6.0 4.8 92 0.5 NW 57 72 31 39 989.4 989.7 1.4
21/02:55am 6.0 -5.0 4.8 92 0.5 NW 52 72 28 39 989.1 - 1.4
21/02:30am 6.0 -5.5 4.6 91 0.6 NW 54 63 29 34 989.1 - 1.4
21/02:19am 6.2 -5.1 5.2 93 0.4 NW 54 72 29 39 989.1 - 1.4
21/02:00am 6.0 -4.2 5.1 94 0.4 NW 48 59 26 32 989.2 - 1.4
21/01:30am 5.9 -4.0 5.0 94 0.4 NNW 46 59 25 32 989.3 - 1.4
21/01:00am 5.8 -4.4 5.1 95 0.3 NNW 48 57 26 31 989.5 - 1.4
21/12:30am 5.7 -4.6 4.8 94 0.4 NNW 48 57 26 31 989.5 - 1.2
21/12:00am 5.6 -5.1 4.7 94 0.4 NNW 50 56 27 30 989.8 990.1 1.2
 
Date/Time
EST
Temp
°C
App
Temp
°C
Dew
Point
°C
Rel
Hum
%
Delta-T
°C
Wind Press
QNH
hPa
Press
MSL
hPa
Rain since
9am
mm
Dir  Spd
km/h
Gust
km/h
Spd
kts
Gust
kts
20/11:30pm 5.5 -4.4 4.6 94 0.4 NNW 46 54 25 29 990.3 - 1.2
20/11:00pm 5.5 -4.4 4.6 94 0.4 NNW 46 54 25 29 990.7 - 1.0
20/10:30pm 5.4 -4.6 4.5 94 0.4 NNW 46 52 25 28 991.0 - 1.0
20/10:00pm 5.4 -4.0 4.5 94 0.4 NNW 43 48 23 26 991.5 - 1.0
20/09:30pm 5.2 -3.5 4.3 94 0.4 NNW 39 48 21 26 991.9 - 1.0
20/09:00pm 5.2 -3.4 4.5 95 0.3 NNW 39 44 21 24 992.2 992.5 1.0
20/08:30pm 5.3 -3.3 4.6 95 0.3 NNW 39 43 21 23 992.6 - 1.0
20/08:00pm 5.3 -3.3 4.6 95 0.3 NNW 39 44 21 24 992.7 - 1.0

Other Formats:

Comma delimited format used in spreadsheet applications
http://www.bom.gov.au/fwo/IDT60801/IDT60801.94998.axf

JavaScript Object Notation format (JSON) in row-major order
http://www.bom.gov.au/fwo/IDT60801/IDT60801.94998.json